PWSweather.com
Personal Weather Stations
Station Observations
AC5CV
Greenleaf Peninsula, Waco, TX 76710

Greenleaf PeninsulaWaco, TX 76710

Lat: 31.565, Lon: -97.198

Elevation: 570

Station Type: Ambient WS2080

http://johnchamber.dyndns.info/

High Low Average
Temperature 98.1°F36.7°C 77.2°F25.1°C 86.9°F30.5°C
Dew Point 73.7°F23.2°C 60.0°F15.6°C 67.9°F19.9°C
Winds 13.0 mph 20.9 kmh 0.6 mph 1.0 kmh 5.0 mph S8.0 kmh S
Wind Gusts 24.8 mph39.9 kmh 2.5 mph4.0 kmh 11.0 mph17.7 kmh
Humidity 86% 30% 57%
Pressure 29.30 in992.2 mb 29.18 in988.1 mb -
Precipitation 0.00 in0.0 mm - -
Hour Temp Dew Point Humidity Winds Wind Gusts Pressure Precip Precip Rate Daily Precip Total
12:00 AM 83.3°F28.5°C 70.3°F21.3°C 65% 10.5 mph S16.9 kmh S 19.9 mph32.0 kmh 29.22 in989.5 mb 0.00 in0.0 mm 0.00 in0.0 mm 0.00 in0.0 mm
12:05 AM 83.2°F28.4°C 70.4°F21.3°C 66% 7.6 mph SSE12.2 kmh SSE 12.3 mph19.8 kmh 29.22 in989.5 mb 0.00 in0.0 mm 0.00 in0.0 mm 0.00 in0.0 mm
12:10 AM 83.1°F28.4°C 70.5°F21.4°C 66% 7.6 mph SSE12.2 kmh SSE 12.3 mph19.8 kmh 29.23 in989.8 mb 0.00 in0.0 mm 0.00 in0.0 mm 0.00 in0.0 mm
12:15 AM 83.0°F28.3°C 70.4°F21.3°C 66% 2.7 mph S4.3 kmh S 9.8 mph15.8 kmh 29.23 in989.8 mb 0.00 in0.0 mm 0.00 in0.0 mm 0.00 in0.0 mm
12:20 AM 82.9°F28.3°C 70.7°F21.5°C 67% 7.5 mph SSE12.1 kmh SSE 17.4 mph28.0 kmh 29.23 in989.8 mb 0.00 in0.0 mm 0.00 in0.0 mm 0.00 in0.0 mm
12:25 AM 82.9°F28.3°C 70.8°F21.6°C 67% 5.7 mph S9.2 kmh S 15.0 mph24.1 kmh 29.22 in989.5 mb 0.00 in0.0 mm 0.00 in0.0 mm 0.00 in0.0 mm
12:30 AM 82.8°F28.2°C 71.0°F21.7°C 68% 6.7 mph SSE10.8 kmh SSE 12.3 mph19.8 kmh 29.22 in989.5 mb 0.00 in0.0 mm 0.00 in0.0 mm 0.00 in0.0 mm
12:35 AM 82.4°F28.0°C 70.8°F21.6°C 68% 3.9 mph SSE6.3 kmh SSE 9.8 mph15.8 kmh 29.22 in989.5 mb 0.00 in0.0 mm 0.00 in0.0 mm 0.00 in0.0 mm
12:40 AM 82.4°F28.0°C 71.2°F21.8°C 69% 7.4 mph SSE11.9 kmh SSE 12.3 mph19.8 kmh 29.23 in989.8 mb 0.00 in0.0 mm 0.00 in0.0 mm 0.00 in0.0 mm
12:45 AM 82.2°F27.9°C 71.1°F21.7°C 69% 4.4 mph S7.1 kmh S 7.4 mph11.9 kmh 29.23 in989.8 mb 0.00 in0.0 mm 0.00 in0.0 mm 0.00 in0.0 mm
12:50 AM 82.2°F27.9°C 71.4°F21.9°C 70% 4.8 mph S7.7 kmh S 12.3 mph19.8 kmh 29.23 in989.8 mb 0.00 in0.0 mm 0.00 in0.0 mm 0.00 in0.0 mm
12:55 AM 82.0°F27.8°C 71.2°F21.8°C 70% 6.3 mph S10.1 kmh S 9.8 mph15.8 kmh 29.23 in989.8 mb 0.00 in0.0 mm 0.00 in0.0 mm 0.00 in0.0 mm
01:00 AM 81.9°F27.7°C 71.1°F21.7°C 70% 4.9 mph S7.9 kmh S 9.8 mph15.8 kmh 29.23 in989.8 mb 0.00 in0.0 mm 0.00 in0.0 mm 0.00 in0.0 mm
01:05 AM 81.9°F27.7°C 71.3°F21.8°C 70% 5.2 mph S8.4 kmh S 9.8 mph15.8 kmh 29.23 in989.8 mb 0.00 in0.0 mm 0.00 in0.0 mm 0.00 in0.0 mm
01:10 AM 81.9°F27.7°C 71.5°F21.9°C 71% 3.9 mph SW6.3 kmh SW 7.4 mph11.9 kmh 29.23 in989.8 mb 0.00 in0.0 mm 0.00 in0.0 mm 0.00 in0.0 mm
01:15 AM 81.5°F27.5°C 71.2°F21.8°C 71% 4.8 mph SSW7.7 kmh SSW 12.3 mph19.8 kmh 29.23 in989.8 mb 0.00 in0.0 mm 0.00 in0.0 mm 0.00 in0.0 mm
01:20 AM 81.3°F27.4°C 71.0°F21.7°C 71% 5.4 mph S8.7 kmh S 9.8 mph15.8 kmh 29.23 in989.8 mb 0.00 in0.0 mm 0.00 in0.0 mm 0.00 in0.0 mm
01:25 AM 81.3°F27.4°C 71.3°F21.8°C 72% 6.4 mph SSE10.3 kmh SSE 17.4 mph28.0 kmh 29.23 in989.8 mb 0.00 in0.0 mm 0.00 in0.0 mm 0.00 in0.0 mm
01:30 AM 81.3°F27.4°C 71.4°F21.9°C 72% 5.2 mph SSW8.4 kmh SSW 15.0 mph24.1 kmh 29.23 in989.8 mb 0.00 in0.0 mm 0.00 in0.0 mm 0.00 in0.0 mm
01:35 AM 80.9°F27.2°C 71.0°F21.7°C 72% 6.8 mph S10.9 kmh S 12.3 mph19.8 kmh 29.23 in989.8 mb 0.00 in0.0 mm 0.00 in0.0 mm 0.00 in0.0 mm
01:40 AM 80.7°F27.1°C 70.8°F21.6°C 72% 3.0 mph SSW4.8 kmh SSW 7.4 mph11.9 kmh 29.23 in989.8 mb 0.00 in0.0 mm 0.00 in0.0 mm 0.00 in0.0 mm
01:45 AM 80.6°F27.0°C 71.2°F21.8°C 73% 5.3 mph S8.5 kmh S 12.3 mph19.8 kmh 29.24 in990.2 mb 0.00 in0.0 mm 0.00 in0.0 mm 0.00 in0.0 mm
01:50 AM 80.6°F27.0°C 71.5°F21.9°C 74% 5.6 mph S9.0 kmh S 12.3 mph19.8 kmh 29.24 in990.2 mb 0.00 in0.0 mm 0.00 in0.0 mm 0.00 in0.0 mm
01:55 AM 80.4°F26.9°C 71.3°F21.8°C 74% 3.0 mph S4.8 kmh S 7.4 mph11.9 kmh 29.24 in990.2 mb 0.00 in0.0 mm 0.00 in0.0 mm 0.00 in0.0 mm
02:00 AM 80.4°F26.9°C 71.3°F21.8°C 74% 4.2 mph S6.8 kmh S 9.8 mph15.8 kmh 29.24 in990.2 mb 0.00 in0.0 mm 0.00 in0.0 mm 0.00 in0.0 mm
02:05 AM 80.3°F26.8°C 71.2°F21.8°C 74% 5.2 mph S8.4 kmh S 15.0 mph24.1 kmh 29.24 in990.2 mb 0.00 in0.0 mm 0.00 in0.0 mm 0.00 in0.0 mm
02:10 AM 80.2°F26.8°C 71.3°F21.8°C 74% 8.2 mph S13.2 kmh S 15.0 mph24.1 kmh 29.24 in990.2 mb 0.00 in0.0 mm 0.00 in0.0 mm 0.00 in0.0 mm
02:15 AM 79.8°F26.6°C 71.1°F21.7°C 75% 4.5 mph S7.2 kmh S 9.8 mph15.8 kmh 29.23 in989.8 mb 0.00 in0.0 mm 0.00 in0.0 mm 0.00 in0.0 mm
02:20 AM 79.5°F26.4°C 70.9°F21.6°C 75% 4.1 mph SSE6.6 kmh SSE 9.8 mph15.8 kmh 29.23 in989.8 mb 0.00 in0.0 mm 0.00 in0.0 mm 0.00 in0.0 mm
02:25 AM 79.5°F26.4°C 71.3°F21.8°C 76% 2.4 mph SSW3.9 kmh SSW 4.9 mph7.9 kmh 29.23 in989.8 mb 0.00 in0.0 mm 0.00 in0.0 mm 0.00 in0.0 mm
02:30 AM 79.5°F26.4°C 71.3°F21.8°C 76% 3.6 mph S5.8 kmh S 9.8 mph15.8 kmh 29.24 in990.2 mb 0.00 in0.0 mm 0.00 in0.0 mm 0.00 in0.0 mm
02:35 AM 79.3°F26.3°C 71.0°F21.7°C 76% 4.1 mph S6.6 kmh S 7.4 mph11.9 kmh 29.24 in990.2 mb 0.00 in0.0 mm 0.00 in0.0 mm 0.00 in0.0 mm
02:40 AM 79.2°F26.2°C 71.0°F21.7°C 76% 2.9 mph SW4.7 kmh SW 7.4 mph11.9 kmh 29.23 in989.8 mb 0.00 in0.0 mm 0.00 in0.0 mm 0.00 in0.0 mm
02:45 AM 79.2°F26.2°C 71.3°F21.8°C 77% 4.2 mph S6.8 kmh S 9.8 mph15.8 kmh 29.23 in989.8 mb 0.00 in0.0 mm 0.00 in0.0 mm 0.00 in0.0 mm
02:50 AM 79.2°F26.2°C 71.3°F21.8°C 77% 3.8 mph S6.1 kmh S 9.8 mph15.8 kmh 29.23 in989.8 mb 0.00 in0.0 mm 0.00 in0.0 mm 0.00 in0.0 mm
02:55 AM 79.2°F26.2°C 71.3°F21.8°C 77% 5.3 mph S8.5 kmh S 12.3 mph19.8 kmh 29.24 in990.2 mb 0.00 in0.0 mm 0.00 in0.0 mm 0.00 in0.0 mm
03:00 AM 79.2°F26.2°C 71.3°F21.8°C 77% 2.9 mph SSW4.7 kmh SSW 7.4 mph11.9 kmh 29.24 in990.2 mb 0.00 in0.0 mm 0.00 in0.0 mm 0.00 in0.0 mm
03:05 AM 79.2°F26.2°C 71.7°F22.1°C 78% 2.5 mph SSW4.0 kmh SSW 7.4 mph11.9 kmh 29.24 in990.2 mb 0.00 in0.0 mm 0.00 in0.0 mm 0.00 in0.0 mm
03:10 AM 79.2°F26.2°C 71.7°F22.1°C 78% 3.9 mph S6.3 kmh S 7.4 mph11.9 kmh 29.24 in990.2 mb 0.00 in0.0 mm 0.00 in0.0 mm 0.00 in0.0 mm
03:15 AM 79.2°F26.2°C 71.9°F22.2°C 78% 4.5 mph S7.2 kmh S 7.4 mph11.9 kmh 29.24 in990.2 mb 0.00 in0.0 mm 0.00 in0.0 mm 0.00 in0.0 mm
03:20 AM 79.2°F26.2°C 72.1°F22.3°C 79% 4.0 mph SSE6.4 kmh SSE 7.4 mph11.9 kmh 29.24 in990.2 mb 0.00 in0.0 mm 0.00 in0.0 mm 0.00 in0.0 mm
03:25 AM 79.2°F26.2°C 72.1°F22.3°C 79% 2.1 mph SSW3.4 kmh SSW 4.9 mph7.9 kmh 29.24 in990.2 mb 0.00 in0.0 mm 0.00 in0.0 mm 0.00 in0.0 mm
03:30 AM 79.2°F26.2°C 72.1°F22.3°C 79% 5.6 mph SSE9.0 kmh SSE 15.0 mph24.1 kmh 29.23 in989.8 mb 0.00 in0.0 mm 0.00 in0.0 mm 0.00 in0.0 mm
03:35 AM 79.2°F26.2°C 72.1°F22.3°C 79% 4.1 mph SSE6.6 kmh SSE 9.8 mph15.8 kmh 29.24 in990.2 mb 0.00 in0.0 mm 0.00 in0.0 mm 0.00 in0.0 mm
03:40 AM 79.2°F26.2°C 72.1°F22.3°C 79% 4.7 mph S7.6 kmh S 9.8 mph15.8 kmh 29.24 in990.2 mb 0.00 in0.0 mm 0.00 in0.0 mm 0.00 in0.0 mm
03:45 AM 79.2°F26.2°C 72.1°F22.3°C 79% 5.5 mph S8.9 kmh S 9.8 mph15.8 kmh 29.23 in989.8 mb 0.00 in0.0 mm 0.00 in0.0 mm 0.00 in0.0 mm
03:50 AM 79.2°F26.2°C 72.1°F22.3°C 79% 6.5 mph S10.5 kmh S 12.3 mph19.8 kmh 29.23 in989.8 mb 0.00 in0.0 mm 0.00 in0.0 mm 0.00 in0.0 mm
03:55 AM 79.2°F26.2°C 72.1°F22.3°C 79% 4.4 mph S7.1 kmh S 12.3 mph19.8 kmh 29.23 in989.8 mb 0.00 in0.0 mm 0.00 in0.0 mm 0.00 in0.0 mm
04:00 AM 79.2°F26.2°C 72.1°F22.3°C 79% 2.4 mph SSE3.9 kmh SSE 4.9 mph7.9 kmh 29.23 in989.8 mb 0.00 in0.0 mm 0.00 in0.0 mm 0.00 in0.0 mm
04:05 AM 79.2°F26.2°C 72.1°F22.3°C 79% 3.5 mph SSE5.6 kmh SSE 7.4 mph11.9 kmh 29.24 in990.2 mb 0.00 in0.0 mm 0.00 in0.0 mm 0.00 in0.0 mm
04:10 AM 79.2°F26.2°C 72.2°F22.3°C 79% 4.3 mph S6.9 kmh S 7.4 mph11.9 kmh 29.24 in990.2 mb 0.00 in0.0 mm 0.00 in0.0 mm 0.00 in0.0 mm
04:15 AM 79.2°F26.2°C 72.4°F22.4°C 80% 3.8 mph SSW6.1 kmh SSW 9.8 mph15.8 kmh 29.24 in990.2 mb 0.00 in0.0 mm 0.00 in0.0 mm 0.00 in0.0 mm
04:20 AM 79.0°F26.1°C 72.3°F22.4°C 80% 6.6 mph S10.6 kmh S 15.0 mph24.1 kmh 29.24 in990.2 mb 0.00 in0.0 mm 0.00 in0.0 mm 0.00 in0.0 mm
04:25 AM 79.0°F26.1°C 72.3°F22.4°C 80% 3.7 mph SE6.0 kmh SE 9.8 mph15.8 kmh 29.24 in990.2 mb 0.00 in0.0 mm 0.00 in0.0 mm 0.00 in0.0 mm
04:30 AM 79.0°F26.1°C 72.3°F22.4°C 80% 4.8 mph S7.7 kmh S 7.4 mph11.9 kmh 29.24 in990.2 mb 0.00 in0.0 mm 0.00 in0.0 mm 0.00 in0.0 mm
04:35 AM 79.0°F26.1°C 72.5°F22.5°C 81% 3.1 mph S5.0 kmh S 9.8 mph15.8 kmh 29.24 in990.2 mb 0.00 in0.0 mm 0.00 in0.0 mm 0.00 in0.0 mm
04:40 AM 78.9°F26.1°C 72.6°F22.6°C 81% 4.2 mph SSE6.8 kmh SSE 7.4 mph11.9 kmh 29.24 in990.2 mb 0.00 in0.0 mm 0.00 in0.0 mm 0.00 in0.0 mm
04:45 AM 78.8°F26.0°C 72.5°F22.5°C 81% 4.6 mph S7.4 kmh S 12.3 mph19.8 kmh 29.25 in990.5 mb 0.00 in0.0 mm 0.00 in0.0 mm 0.00 in0.0 mm
04:50 AM 78.8°F26.0°C 72.5°F22.5°C 81% 4.1 mph S6.6 kmh S 9.8 mph15.8 kmh 29.25 in990.5 mb 0.00 in0.0 mm 0.00 in0.0 mm 0.00 in0.0 mm
04:55 AM 78.8°F26.0°C 72.5°F22.5°C 81% 3.4 mph S5.5 kmh S 7.4 mph11.9 kmh 29.25 in990.5 mb 0.00 in0.0 mm 0.00 in0.0 mm 0.00 in0.0 mm
05:00 AM 78.7°F25.9°C 72.5°F22.5°C 82% 3.2 mph S5.1 kmh S 9.8 mph15.8 kmh 29.25 in990.5 mb 0.00 in0.0 mm 0.00 in0.0 mm 0.00 in0.0 mm
05:05 AM 78.6°F25.9°C 72.6°F22.6°C 82% 2.8 mph S4.5 kmh S 7.4 mph11.9 kmh 29.26 in990.9 mb 0.00 in0.0 mm 0.00 in0.0 mm 0.00 in0.0 mm
05:10 AM 78.6°F25.9°C 72.6°F22.6°C 82% 3.2 mph S5.1 kmh S 12.3 mph19.8 kmh 29.26 in990.9 mb 0.00 in0.0 mm 0.00 in0.0 mm 0.00 in0.0 mm
05:15 AM 78.6°F25.9°C 72.6°F22.6°C 82% 5.2 mph SSE8.4 kmh SSE 9.8 mph15.8 kmh 29.26 in990.9 mb 0.00 in0.0 mm 0.00 in0.0 mm 0.00 in0.0 mm
05:20 AM 78.6°F25.9°C 72.6°F22.6°C 82% 3.3 mph SSE5.3 kmh SSE 9.8 mph15.8 kmh 29.26 in990.9 mb 0.00 in0.0 mm 0.00 in0.0 mm 0.00 in0.0 mm
05:25 AM 78.6°F25.9°C 72.6°F22.6°C 82% 3.9 mph S6.3 kmh S 7.4 mph11.9 kmh 29.26 in990.9 mb 0.00 in0.0 mm 0.00 in0.0 mm 0.00 in0.0 mm
05:30 AM 78.6°F25.9°C 72.6°F22.6°C 82% 1.6 mph SSW2.6 kmh SSW 4.9 mph7.9 kmh 29.26 in990.9 mb 0.00 in0.0 mm 0.00 in0.0 mm 0.00 in0.0 mm
05:35 AM 78.6°F25.9°C 73.0°F22.8°C 83% 5.0 mph S8.0 kmh S 7.4 mph11.9 kmh 29.26 in990.9 mb 0.00 in0.0 mm 0.00 in0.0 mm 0.00 in0.0 mm
05:40 AM 78.6°F25.9°C 73.0°F22.8°C 83% 3.7 mph S6.0 kmh S 7.4 mph11.9 kmh 29.26 in990.9 mb 0.00 in0.0 mm 0.00 in0.0 mm 0.00 in0.0 mm
05:45 AM 78.6°F25.9°C 73.0°F22.8°C 83% 3.5 mph S5.6 kmh S 7.4 mph11.9 kmh 29.26 in990.9 mb 0.00 in0.0 mm 0.00 in0.0 mm 0.00 in0.0 mm
05:50 AM 78.6°F25.9°C 73.0°F22.8°C 83% 6.5 mph SSE10.5 kmh SSE 15.0 mph24.1 kmh 29.26 in990.9 mb 0.00 in0.0 mm 0.00 in0.0 mm 0.00 in0.0 mm
05:55 AM 78.6°F25.9°C 73.0°F22.8°C 83% 4.2 mph S6.8 kmh S 12.3 mph19.8 kmh 29.26 in990.9 mb 0.00 in0.0 mm 0.00 in0.0 mm 0.00 in0.0 mm
06:00 AM 78.6°F25.9°C 73.2°F22.9°C 84% 6.4 mph SSW10.3 kmh SSW 12.3 mph19.8 kmh 29.26 in990.9 mb 0.00 in0.0 mm 0.00 in0.0 mm 0.00 in0.0 mm
06:05 AM 78.6°F25.9°C 73.3°F22.9°C 84% 5.3 mph SSE8.5 kmh SSE 9.8 mph15.8 kmh 29.27 in991.2 mb 0.00 in0.0 mm 0.00 in0.0 mm 0.00 in0.0 mm
06:10 AM 78.6°F25.9°C 73.3°F22.9°C 84% 4.7 mph S7.6 kmh S 7.4 mph11.9 kmh 29.27 in991.2 mb 0.00 in0.0 mm 0.00 in0.0 mm 0.00 in0.0 mm
06:15 AM 78.6°F25.9°C 73.3°F22.9°C 84% 2.6 mph S4.2 kmh S 7.4 mph11.9 kmh 29.27 in991.2 mb 0.00 in0.0 mm 0.00 in0.0 mm 0.00 in0.0 mm
06:20 AM 78.6°F25.9°C 73.7°F23.2°C 85% 5.3 mph SSE8.5 kmh SSE 9.8 mph15.8 kmh 29.27 in991.2 mb 0.00 in0.0 mm 0.00 in0.0 mm 0.00 in0.0 mm
06:25 AM 78.5°F25.8°C 73.6°F23.1°C 85% 4.7 mph SSE7.6 kmh SSE 12.3 mph19.8 kmh 29.27 in991.2 mb 0.00 in0.0 mm 0.00 in0.0 mm 0.00 in0.0 mm
06:30 AM 78.4°F25.8°C 73.5°F23.1°C 85% 4.7 mph SSE7.6 kmh SSE 9.8 mph15.8 kmh 29.27 in991.2 mb 0.00 in0.0 mm 0.00 in0.0 mm 0.00 in0.0 mm
06:35 AM 78.2°F25.7°C 73.3°F22.9°C 85% 5.5 mph SSE8.9 kmh SSE 9.8 mph15.8 kmh 29.27 in991.2 mb 0.00 in0.0 mm 0.00 in0.0 mm 0.00 in0.0 mm
06:40 AM 77.2°F25.1°C 72.4°F22.4°C 85% 4.4 mph S7.1 kmh S 9.8 mph15.8 kmh 29.27 in991.2 mb 0.00 in0.0 mm 0.00 in0.0 mm 0.00 in0.0 mm
06:45 AM 77.2°F25.1°C 72.7°F22.6°C 86% 4.8 mph SSE7.7 kmh SSE 12.3 mph19.8 kmh 29.26 in990.9 mb 0.00 in0.0 mm 0.00 in0.0 mm 0.00 in0.0 mm
06:50 AM 77.2°F25.1°C 72.6°F22.6°C 86% 3.9 mph S6.3 kmh S 7.4 mph11.9 kmh 29.27 in991.2 mb 0.00 in0.0 mm 0.00 in0.0 mm 0.00 in0.0 mm
06:55 AM 77.2°F25.1°C 72.3°F22.4°C 85% 3.4 mph SW5.5 kmh SW 7.4 mph11.9 kmh 29.27 in991.2 mb 0.00 in0.0 mm 0.00 in0.0 mm 0.00 in0.0 mm
07:00 AM 77.2°F25.1°C 72.3°F22.4°C 85% 2.2 mph SSW3.5 kmh SSW 4.9 mph7.9 kmh 29.27 in991.2 mb 0.00 in0.0 mm 0.00 in0.0 mm 0.00 in0.0 mm
07:05 AM 77.3°F25.2°C 72.4°F22.4°C 85% 3.3 mph S5.3 kmh S 9.8 mph15.8 kmh 29.27 in991.2 mb 0.00 in0.0 mm 0.00 in0.0 mm 0.00 in0.0 mm
07:10 AM 77.5°F25.3°C 72.6°F22.6°C 85% 3.4 mph S5.5 kmh S 7.4 mph11.9 kmh 29.27 in991.2 mb 0.00 in0.0 mm 0.00 in0.0 mm 0.00 in0.0 mm
07:15 AM 77.6°F25.3°C 72.8°F22.7°C 85% 3.6 mph S5.8 kmh S 9.8 mph15.8 kmh 29.27 in991.2 mb 0.00 in0.0 mm 0.00 in0.0 mm 0.00 in0.0 mm
07:20 AM 78.6°F25.9°C 73.6°F23.1°C 85% 3.8 mph S6.1 kmh S 7.4 mph11.9 kmh 29.28 in991.5 mb 0.00 in0.0 mm 0.00 in0.0 mm 0.00 in0.0 mm
07:25 AM 78.6°F25.9°C 73.3°F22.9°C 84% 4.7 mph S7.6 kmh S 9.8 mph15.8 kmh 29.28 in991.5 mb 0.00 in0.0 mm 0.00 in0.0 mm 0.00 in0.0 mm
07:30 AM 78.6°F25.9°C 73.3°F22.9°C 84% 6.9 mph SSE11.1 kmh SSE 12.3 mph19.8 kmh 29.28 in991.5 mb 0.00 in0.0 mm 0.00 in0.0 mm 0.00 in0.0 mm
07:35 AM 78.6°F25.9°C 73.3°F22.9°C 84% 5.6 mph S9.0 kmh S 12.3 mph19.8 kmh 29.28 in991.5 mb 0.00 in0.0 mm 0.00 in0.0 mm 0.00 in0.0 mm
07:40 AM 78.6°F25.9°C 73.1°F22.8°C 83% 4.1 mph S6.6 kmh S 12.3 mph19.8 kmh 29.28 in991.5 mb 0.00 in0.0 mm 0.00 in0.0 mm 0.00 in0.0 mm
07:45 AM 78.6°F25.9°C 73.0°F22.8°C 83% 6.3 mph S10.1 kmh S 12.3 mph19.8 kmh 29.28 in991.5 mb 0.00 in0.0 mm 0.00 in0.0 mm 0.00 in0.0 mm
07:50 AM 78.6°F25.9°C 72.6°F22.6°C 82% 4.5 mph S7.2 kmh S 12.3 mph19.8 kmh 29.28 in991.5 mb 0.00 in0.0 mm 0.00 in0.0 mm 0.00 in0.0 mm
07:55 AM 78.6°F25.9°C 72.2°F22.3°C 81% 3.8 mph SSW6.1 kmh SSW 9.8 mph15.8 kmh 29.28 in991.5 mb 0.00 in0.0 mm 0.00 in0.0 mm 0.00 in0.0 mm
08:00 AM 78.9°F26.1°C 72.0°F22.2°C 80% 3.8 mph SSE6.1 kmh SSE 7.4 mph11.9 kmh 29.29 in991.9 mb 0.00 in0.0 mm 0.00 in0.0 mm 0.00 in0.0 mm
08:05 AM 79.0°F26.1°C 71.9°F22.2°C 79% 3.7 mph S6.0 kmh S 7.4 mph11.9 kmh 29.29 in991.9 mb 0.00 in0.0 mm 0.00 in0.0 mm 0.00 in0.0 mm
08:10 AM 79.0°F26.1°C 71.4°F21.9°C 78% 2.3 mph SSW3.7 kmh SSW 7.4 mph11.9 kmh 29.29 in991.9 mb 0.00 in0.0 mm 0.00 in0.0 mm 0.00 in0.0 mm
08:15 AM 79.1°F26.2°C 71.1°F21.7°C 76% 3.1 mph SSW5.0 kmh SSW 7.4 mph11.9 kmh 29.29 in991.9 mb 0.00 in0.0 mm 0.00 in0.0 mm 0.00 in0.0 mm
08:20 AM 79.4°F26.3°C 70.7°F21.5°C 75% 3.2 mph SSW5.1 kmh SSW 7.4 mph11.9 kmh 29.29 in991.9 mb 0.00 in0.0 mm 0.00 in0.0 mm 0.00 in0.0 mm
08:25 AM 79.5°F26.4°C 71.1°F21.7°C 76% 3.8 mph SSW6.1 kmh SSW 7.4 mph11.9 kmh 29.29 in991.9 mb 0.00 in0.0 mm 0.00 in0.0 mm 0.00 in0.0 mm
08:30 AM 79.5°F26.4°C 70.9°F21.6°C 75% 3.6 mph S5.8 kmh S 9.8 mph15.8 kmh 29.29 in991.9 mb 0.00 in0.0 mm 0.00 in0.0 mm 0.00 in0.0 mm
08:35 AM 79.6°F26.4°C 70.4°F21.3°C 74% 2.9 mph SSW4.7 kmh SSW 4.9 mph7.9 kmh 29.29 in991.9 mb 0.00 in0.0 mm 0.00 in0.0 mm 0.00 in0.0 mm
08:40 AM 81.5°F27.5°C 70.9°F21.6°C 70% 3.0 mph S4.8 kmh S 9.8 mph15.8 kmh 29.29 in991.9 mb 0.00 in0.0 mm 0.00 in0.0 mm 0.00 in0.0 mm
08:45 AM 82.9°F28.3°C 71.1°F21.7°C 68% 6.4 mph SSE10.3 kmh SSE 12.3 mph19.8 kmh 29.29 in991.9 mb 0.00 in0.0 mm 0.00 in0.0 mm 0.00 in0.0 mm
08:50 AM 82.9°F28.3°C 71.0°F21.7°C 68% 4.8 mph SE7.7 kmh SE 12.3 mph19.8 kmh 29.29 in991.9 mb 0.00 in0.0 mm 0.00 in0.0 mm 0.00 in0.0 mm
08:55 AM 82.9°F28.3°C 70.7°F21.5°C 67% 5.0 mph SSE8.0 kmh SSE 12.3 mph19.8 kmh 29.29 in991.9 mb 0.00 in0.0 mm 0.00 in0.0 mm 0.00 in0.0 mm
09:00 AM 82.9°F28.3°C 70.3°F21.3°C 66% 1.6 mph SW2.6 kmh SW 4.9 mph7.9 kmh 29.29 in991.9 mb 0.00 in0.0 mm 0.00 in0.0 mm 0.00 in0.0 mm
09:05 AM 82.9°F28.3°C 70.3°F21.3°C 66% 2.5 mph SW4.0 kmh SW 7.4 mph11.9 kmh 29.29 in991.9 mb 0.00 in0.0 mm 0.00 in0.0 mm 0.00 in0.0 mm
09:10 AM 82.9°F28.3°C 69.6°F20.9°C 64% 3.5 mph SW5.6 kmh SW 7.4 mph11.9 kmh 29.29 in991.9 mb 0.00 in0.0 mm 0.00 in0.0 mm 0.00 in0.0 mm
09:15 AM 82.9°F28.3°C 69.4°F20.8°C 64% 6.5 mph SSE10.5 kmh SSE 12.3 mph19.8 kmh 29.29 in991.9 mb 0.00 in0.0 mm 0.00 in0.0 mm 0.00 in0.0 mm
09:20 AM 83.5°F28.6°C 69.7°F20.9°C 63% 6.6 mph S10.6 kmh S 12.3 mph19.8 kmh 29.29 in991.9 mb 0.00 in0.0 mm 0.00 in0.0 mm 0.00 in0.0 mm
09:25 AM 84.0°F28.9°C 69.2°F20.7°C 61% 5.1 mph S8.2 kmh S 12.3 mph19.8 kmh 29.29 in991.9 mb 0.00 in0.0 mm 0.00 in0.0 mm 0.00 in0.0 mm
09:30 AM 84.2°F29.0°C 68.8°F20.4°C 60% 6.1 mph SSE9.8 kmh SSE 12.3 mph19.8 kmh 29.29 in991.9 mb 0.00 in0.0 mm 0.00 in0.0 mm 0.00 in0.0 mm
09:35 AM 84.4°F29.1°C 68.9°F20.5°C 60% 5.7 mph S9.2 kmh S 9.8 mph15.8 kmh 29.29 in991.9 mb 0.00 in0.0 mm 0.00 in0.0 mm 0.00 in0.0 mm
09:40 AM 84.8°F29.3°C 69.2°F20.7°C 60% 7.4 mph S11.9 kmh S 15.0 mph24.1 kmh 29.29 in991.9 mb 0.00 in0.0 mm 0.00 in0.0 mm 0.00 in0.0 mm
09:45 AM 85.1°F29.5°C 69.3°F20.7°C 59% 4.4 mph S7.1 kmh S 15.0 mph24.1 kmh 29.29 in991.9 mb 0.00 in0.0 mm 0.00 in0.0 mm 0.00 in0.0 mm
09:50 AM 85.3°F29.6°C 68.1°F20.1°C 57% 3.7 mph SSW6.0 kmh SSW 9.8 mph15.8 kmh 29.29 in991.9 mb 0.00 in0.0 mm 0.00 in0.0 mm 0.00 in0.0 mm
09:55 AM 85.4°F29.7°C 67.8°F19.9°C 56% 6.7 mph S10.8 kmh S 15.0 mph24.1 kmh 29.29 in991.9 mb 0.00 in0.0 mm 0.00 in0.0 mm 0.00 in0.0 mm
10:00 AM 85.8°F29.9°C 67.4°F19.7°C 54% 8.4 mph SSE13.5 kmh SSE 19.9 mph32.0 kmh 29.29 in991.9 mb 0.00 in0.0 mm 0.00 in0.0 mm 0.00 in0.0 mm
10:05 AM 86.2°F30.1°C 66.8°F19.3°C 52% 6.6 mph S10.6 kmh S 15.0 mph24.1 kmh 29.29 in991.9 mb 0.00 in0.0 mm 0.00 in0.0 mm 0.00 in0.0 mm
10:10 AM 86.3°F30.2°C 66.5°F19.2°C 52% 4.1 mph S6.6 kmh S 12.3 mph19.8 kmh 29.30 in992.2 mb 0.00 in0.0 mm 0.00 in0.0 mm 0.00 in0.0 mm
10:15 AM 86.5°F30.3°C 66.5°F19.2°C 52% 4.3 mph SSW6.9 kmh SSW 7.4 mph11.9 kmh 29.30 in992.2 mb 0.00 in0.0 mm 0.00 in0.0 mm 0.00 in0.0 mm
10:20 AM 86.9°F30.5°C 66.4°F19.1°C 51% 5.6 mph S9.0 kmh S 12.3 mph19.8 kmh 29.30 in992.2 mb 0.00 in0.0 mm 0.00 in0.0 mm 0.00 in0.0 mm
10:25 AM 87.6°F30.9°C 66.5°F19.2°C 50% 5.5 mph SSW8.9 kmh SSW 7.4 mph11.9 kmh 29.30 in992.2 mb 0.00 in0.0 mm 0.00 in0.0 mm 0.00 in0.0 mm
10:30 AM 87.6°F30.9°C 66.3°F19.1°C 50% 5.8 mph S9.3 kmh S 15.0 mph24.1 kmh 29.30 in992.2 mb 0.00 in0.0 mm 0.00 in0.0 mm 0.00 in0.0 mm
10:35 AM 87.7°F30.9°C 66.7°F19.3°C 50% 2.7 mph WSW4.3 kmh WSW 7.4 mph11.9 kmh 29.30 in992.2 mb 0.00 in0.0 mm 0.00 in0.0 mm 0.00 in0.0 mm
10:40 AM 88.0°F31.1°C 66.9°F19.4°C 50% 2.6 mph S4.2 kmh S 7.4 mph11.9 kmh 29.30 in992.2 mb 0.00 in0.0 mm 0.00 in0.0 mm 0.00 in0.0 mm
10:45 AM 88.9°F31.6°C 67.5°F19.7°C 50% 3.9 mph SSW6.3 kmh SSW 9.8 mph15.8 kmh 29.30 in992.2 mb 0.00 in0.0 mm 0.00 in0.0 mm 0.00 in0.0 mm
10:50 AM 88.9°F31.6°C 67.2°F19.6°C 49% 4.2 mph SW6.8 kmh SW 12.3 mph19.8 kmh 29.30 in992.2 mb 0.00 in0.0 mm 0.00 in0.0 mm 0.00 in0.0 mm
10:55 AM 88.9°F31.6°C 66.9°F19.4°C 48% 4.4 mph SW7.1 kmh SW 9.8 mph15.8 kmh 29.30 in992.2 mb 0.00 in0.0 mm 0.00 in0.0 mm 0.00 in0.0 mm
11:00 AM 88.9°F31.6°C 67.3°F19.6°C 49% 4.2 mph S6.8 kmh S 9.8 mph15.8 kmh 29.30 in992.2 mb 0.00 in0.0 mm 0.00 in0.0 mm 0.00 in0.0 mm
11:05 AM 88.7°F31.5°C 66.3°F19.1°C 48% 4.1 mph SW6.6 kmh SW 12.3 mph19.8 kmh 29.30 in992.2 mb 0.00 in0.0 mm 0.00 in0.0 mm 0.00 in0.0 mm
11:10 AM 89.0°F31.7°C 64.7°F18.2°C 45% 5.7 mph S9.2 kmh S 9.8 mph15.8 kmh 29.30 in992.2 mb 0.00 in0.0 mm 0.00 in0.0 mm 0.00 in0.0 mm
11:15 AM 89.2°F31.8°C 65.0°F18.3°C 45% 6.6 mph S10.6 kmh S 9.8 mph15.8 kmh 29.29 in991.9 mb 0.00 in0.0 mm 0.00 in0.0 mm 0.00 in0.0 mm
11:20 AM 89.8°F32.1°C 64.8°F18.2°C 44% 5.6 mph SE9.0 kmh SE 12.3 mph19.8 kmh 29.29 in991.9 mb 0.00 in0.0 mm 0.00 in0.0 mm 0.00 in0.0 mm
11:25 AM 91.0°F32.8°C 65.4°F18.6°C 43% 3.4 mph S5.5 kmh S 7.4 mph11.9 kmh 29.29 in991.9 mb 0.00 in0.0 mm 0.00 in0.0 mm 0.00 in0.0 mm
11:30 AM 91.0°F32.8°C 64.6°F18.1°C 42% 4.1 mph S6.6 kmh S 9.8 mph15.8 kmh 29.29 in991.9 mb 0.00 in0.0 mm 0.00 in0.0 mm 0.00 in0.0 mm
11:35 AM 91.2°F32.9°C 64.5°F18.1°C 42% 3.4 mph S5.5 kmh S 7.4 mph11.9 kmh 29.29 in991.9 mb 0.00 in0.0 mm 0.00 in0.0 mm 0.00 in0.0 mm
11:40 AM 91.6°F33.1°C 64.7°F18.2°C 41% 2.4 mph SSW3.9 kmh SSW 7.4 mph11.9 kmh 29.28 in991.5 mb 0.00 in0.0 mm 0.00 in0.0 mm 0.00 in0.0 mm
11:45 AM 92.6°F33.7°C 64.5°F18.1°C 40% 2.0 mph SW3.2 kmh SW 4.9 mph7.9 kmh 29.28 in991.5 mb 0.00 in0.0 mm 0.00 in0.0 mm 0.00 in0.0 mm
11:50 AM 92.7°F33.7°C 63.3°F17.4°C 38% 2.1 mph SSW3.4 kmh SSW 4.9 mph7.9 kmh 29.28 in991.5 mb 0.00 in0.0 mm 0.00 in0.0 mm 0.00 in0.0 mm
11:55 AM 92.6°F33.7°C 63.4°F17.4°C 38% 4.2 mph WSW6.8 kmh WSW 9.8 mph15.8 kmh 29.28 in991.5 mb 0.00 in0.0 mm 0.00 in0.0 mm 0.00 in0.0 mm
12:00 PM 92.7°F33.7°C 62.6°F17.0°C 37% 0.6 mph SW1.0 kmh SW 2.5 mph4.0 kmh 29.28 in991.5 mb 0.00 in0.0 mm 0.00 in0.0 mm 0.00 in0.0 mm
12:05 PM 94.4°F34.7°C 64.6°F18.1°C 38% 4.1 mph S6.6 kmh S 7.4 mph11.9 kmh 29.27 in991.2 mb 0.00 in0.0 mm 0.00 in0.0 mm 0.00 in0.0 mm
12:10 PM 94.2°F34.6°C 64.5°F18.1°C 38% 5.1 mph S8.2 kmh S 9.8 mph15.8 kmh 29.27 in991.2 mb 0.00 in0.0 mm 0.00 in0.0 mm 0.00 in0.0 mm
12:15 PM 93.9°F34.4°C 65.5°F18.6°C 40% 6.0 mph S9.7 kmh S 12.3 mph19.8 kmh 29.27 in991.2 mb 0.00 in0.0 mm 0.00 in0.0 mm 0.00 in0.0 mm
12:20 PM 93.7°F34.3°C 64.4°F18.0°C 38% 5.4 mph S8.7 kmh S 12.3 mph19.8 kmh 29.27 in991.2 mb 0.00 in0.0 mm 0.00 in0.0 mm 0.00 in0.0 mm
12:25 PM 93.4°F34.1°C 63.3°F17.4°C 37% 2.7 mph S4.3 kmh S 7.4 mph11.9 kmh 29.27 in991.2 mb 0.00 in0.0 mm 0.00 in0.0 mm 0.00 in0.0 mm
12:30 PM 93.5°F34.2°C 62.5°F16.9°C 36% 2.2 mph SW3.5 kmh SW 4.9 mph7.9 kmh 29.27 in991.2 mb 0.00 in0.0 mm 0.00 in0.0 mm 0.00 in0.0 mm
12:35 PM 93.7°F34.3°C 63.6°F17.6°C 37% 6.3 mph S10.1 kmh S 15.0 mph24.1 kmh 29.27 in991.2 mb 0.00 in0.0 mm 0.00 in0.0 mm 0.00 in0.0 mm
12:40 PM 93.9°F34.4°C 63.6°F17.6°C 37% 2.6 mph SSW4.2 kmh SSW 7.4 mph11.9 kmh 29.26 in990.9 mb 0.00 in0.0 mm 0.00 in0.0 mm 0.00 in0.0 mm
12:45 PM 94.5°F34.7°C 63.5°F17.5°C 36% 5.1 mph S8.2 kmh S 15.0 mph24.1 kmh 29.27 in991.2 mb 0.00 in0.0 mm 0.00 in0.0 mm 0.00 in0.0 mm
12:50 PM 94.5°F34.7°C 63.5°F17.5°C 36% 5.6 mph SSE9.0 kmh SSE 12.3 mph19.8 kmh 29.27 in991.2 mb 0.00 in0.0 mm 0.00 in0.0 mm 0.00 in0.0 mm
12:55 PM 94.5°F34.7°C 63.0°F17.2°C 36% 4.1 mph SW6.6 kmh SW 9.8 mph15.8 kmh 29.26 in990.9 mb 0.00 in0.0 mm 0.00 in0.0 mm 0.00 in0.0 mm
01:00 PM 94.5°F34.7°C 62.4°F16.9°C 35% 2.7 mph S4.3 kmh S 7.4 mph11.9 kmh 29.26 in990.9 mb 0.00 in0.0 mm 0.00 in0.0 mm 0.00 in0.0 mm
01:05 PM 95.0°F35.0°C 63.3°F17.4°C 35% 2.8 mph S4.5 kmh S 7.4 mph11.9 kmh 29.26 in990.9 mb 0.00 in0.0 mm 0.00 in0.0 mm 0.00 in0.0 mm
01:10 PM 95.1°F35.1°C 63.3°F17.4°C 35% 2.8 mph SW4.5 kmh SW 4.9 mph7.9 kmh 29.26 in990.9 mb 0.00 in0.0 mm 0.00 in0.0 mm 0.00 in0.0 mm
01:15 PM 95.2°F35.1°C 62.3°F16.8°C 34% 4.8 mph S7.7 kmh S 9.8 mph15.8 kmh 29.26 in990.9 mb 0.00 in0.0 mm 0.00 in0.0 mm 0.00 in0.0 mm
01:20 PM 95.2°F35.1°C 62.8°F17.1°C 34% 3.7 mph SW6.0 kmh SW 9.8 mph15.8 kmh 29.26 in990.9 mb 0.00 in0.0 mm 0.00 in0.0 mm 0.00 in0.0 mm
01:25 PM 94.6°F34.8°C 61.7°F16.5°C 34% 1.6 mph WSW2.6 kmh WSW 2.5 mph4.0 kmh 29.25 in990.5 mb 0.00 in0.0 mm 0.00 in0.0 mm 0.00 in0.0 mm
01:30 PM 94.7°F34.8°C 61.7°F16.5°C 34% 3.3 mph SW5.3 kmh SW 9.8 mph15.8 kmh 29.25 in990.5 mb 0.00 in0.0 mm 0.00 in0.0 mm 0.00 in0.0 mm
01:35 PM 94.9°F34.9°C 61.5°F16.4°C 33% 5.3 mph S8.5 kmh S 19.9 mph32.0 kmh 29.24 in990.2 mb 0.00 in0.0 mm 0.00 in0.0 mm 0.00 in0.0 mm
01:40 PM 95.1°F35.1°C 62.1°F16.7°C 34% 1.6 mph S2.6 kmh S 4.9 mph7.9 kmh 29.25 in990.5 mb 0.00 in0.0 mm 0.00 in0.0 mm 0.00 in0.0 mm
01:45 PM 96.6°F35.9°C 62.3°F16.8°C 32% 3.2 mph S5.1 kmh S 7.4 mph11.9 kmh 29.25 in990.5 mb 0.00 in0.0 mm 0.00 in0.0 mm 0.00 in0.0 mm
01:50 PM 96.8°F36.0°C 61.6°F16.4°C 32% 2.9 mph SSW4.7 kmh SSW 9.8 mph15.8 kmh 29.24 in990.2 mb 0.00 in0.0 mm 0.00 in0.0 mm 0.00 in0.0 mm
01:55 PM 96.9°F36.1°C 62.0°F16.7°C 32% 2.1 mph SW3.4 kmh SW 7.4 mph11.9 kmh 29.24 in990.2 mb 0.00 in0.0 mm 0.00 in0.0 mm 0.00 in0.0 mm
02:00 PM 97.0°F36.1°C 61.6°F16.4°C 31% 3.2 mph S5.1 kmh S 9.8 mph15.8 kmh 29.24 in990.2 mb 0.00 in0.0 mm 0.00 in0.0 mm 0.00 in0.0 mm
02:05 PM 97.5°F36.4°C 62.6°F17.0°C 32% 3.2 mph SSE5.1 kmh SSE 7.4 mph11.9 kmh 29.24 in990.2 mb 0.00 in0.0 mm 0.00 in0.0 mm 0.00 in0.0 mm
02:10 PM 97.5°F36.4°C 62.0°F16.7°C 31% 3.1 mph S5.0 kmh S 7.4 mph11.9 kmh 29.23 in989.8 mb 0.00 in0.0 mm 0.00 in0.0 mm 0.00 in0.0 mm
02:15 PM 97.5°F36.4°C 61.7°F16.5°C 31% 3.9 mph SSW6.3 kmh SSW 9.8 mph15.8 kmh 29.23 in989.8 mb 0.00 in0.0 mm 0.00 in0.0 mm 0.00 in0.0 mm
02:20 PM 97.5°F36.4°C 60.9°F16.1°C 30% 4.0 mph S6.4 kmh S 9.8 mph15.8 kmh 29.23 in989.8 mb 0.00 in0.0 mm 0.00 in0.0 mm 0.00 in0.0 mm
02:25 PM 96.7°F35.9°C 61.6°F16.4°C 32% 4.4 mph S7.1 kmh S 7.4 mph11.9 kmh 29.23 in989.8 mb 0.00 in0.0 mm 0.00 in0.0 mm 0.00 in0.0 mm
02:30 PM 96.3°F35.7°C 60.7°F15.9°C 31% 2.1 mph SW3.4 kmh SW 7.4 mph11.9 kmh 29.23 in989.8 mb 0.00 in0.0 mm 0.00 in0.0 mm 0.00 in0.0 mm
02:35 PM 96.5°F35.8°C 61.2°F16.2°C 31% 1.8 mph SW2.9 kmh SW 4.9 mph7.9 kmh 29.23 in989.8 mb 0.00 in0.0 mm 0.00 in0.0 mm 0.00 in0.0 mm
02:40 PM 96.8°F36.0°C 61.0°F16.1°C 31% 2.2 mph SW3.5 kmh SW 4.9 mph7.9 kmh 29.22 in989.5 mb 0.00 in0.0 mm 0.00 in0.0 mm 0.00 in0.0 mm
02:45 PM 96.7°F35.9°C 63.4°F17.4°C 34% 4.5 mph S7.2 kmh S 12.3 mph19.8 kmh 29.22 in989.5 mb 0.00 in0.0 mm 0.00 in0.0 mm 0.00 in0.0 mm
02:50 PM 96.6°F35.9°C 63.2°F17.3°C 34% 4.6 mph S7.4 kmh S 12.3 mph19.8 kmh 29.22 in989.5 mb 0.00 in0.0 mm 0.00 in0.0 mm 0.00 in0.0 mm
02:55 PM 96.6°F35.9°C 61.9°F16.6°C 32% 4.4 mph S7.1 kmh S 7.4 mph11.9 kmh 29.22 in989.5 mb 0.00 in0.0 mm 0.00 in0.0 mm 0.00 in0.0 mm
03:00 PM 96.8°F36.0°C 62.5°F16.9°C 32% 4.0 mph S6.4 kmh S 12.3 mph19.8 kmh 29.22 in989.5 mb 0.00 in0.0 mm 0.00 in0.0 mm 0.00 in0.0 mm
03:05 PM 97.6°F36.4°C 62.1°F16.7°C 31% 2.4 mph S3.9 kmh S 4.9 mph7.9 kmh 29.22 in989.5 mb 0.00 in0.0 mm 0.00 in0.0 mm 0.00 in0.0 mm
03:10 PM 98.1°F36.7°C 62.0°F16.7°C 31% 2.9 mph SW4.7 kmh SW 9.8 mph15.8 kmh 29.21 in989.2 mb 0.00 in0.0 mm 0.00 in0.0 mm 0.00 in0.0 mm
03:15 PM 98.1°F36.7°C 63.2°F17.3°C 32% 6.7 mph S10.8 kmh S 15.0 mph24.1 kmh 29.21 in989.2 mb 0.00 in0.0 mm 0.00 in0.0 mm 0.00 in0.0 mm
03:20 PM 98.0°F36.7°C 62.9°F17.2°C 32% 3.1 mph SW5.0 kmh SW 7.4 mph11.9 kmh 29.21 in989.2 mb 0.00 in0.0 mm 0.00 in0.0 mm 0.00 in0.0 mm
03:25 PM 97.9°F36.6°C 62.1°F16.7°C 31% 2.6 mph S4.2 kmh S 7.4 mph11.9 kmh 29.20 in988.8 mb 0.00 in0.0 mm 0.00 in0.0 mm 0.00 in0.0 mm
03:30 PM 97.8°F36.6°C 63.3°F17.4°C 32% 2.2 mph SW3.5 kmh SW 7.4 mph11.9 kmh 29.21 in989.2 mb 0.00 in0.0 mm 0.00 in0.0 mm 0.00 in0.0 mm
03:35 PM 97.7°F36.5°C 63.4°F17.4°C 33% 3.9 mph S6.3 kmh S 7.4 mph11.9 kmh 29.20 in988.8 mb 0.00 in0.0 mm 0.00 in0.0 mm 0.00 in0.0 mm
03:40 PM 97.6°F36.4°C 64.0°F17.8°C 34% 7.0 mph SSE11.3 kmh SSE 9.8 mph15.8 kmh 29.21 in989.2 mb 0.00 in0.0 mm 0.00 in0.0 mm 0.00 in0.0 mm
03:45 PM 97.4°F36.3°C 63.4°F17.4°C 33% 6.2 mph SSE10.0 kmh SSE 12.3 mph19.8 kmh 29.21 in989.2 mb 0.00 in0.0 mm 0.00 in0.0 mm 0.00 in0.0 mm
03:50 PM 97.3°F36.3°C 63.6°F17.6°C 33% 4.2 mph S6.8 kmh S 15.0 mph24.1 kmh 29.21 in989.2 mb 0.00 in0.0 mm 0.00 in0.0 mm 0.00 in0.0 mm
03:55 PM 97.2°F36.2°C 64.2°F17.9°C 34% 7.0 mph SE11.3 kmh SE 9.8 mph15.8 kmh 29.20 in988.8 mb 0.00 in0.0 mm 0.00 in0.0 mm 0.00 in0.0 mm
04:00 PM 96.7°F35.9°C 65.3°F18.5°C 36% 6.9 mph S11.1 kmh S 15.0 mph24.1 kmh 29.20 in988.8 mb 0.00 in0.0 mm 0.00 in0.0 mm 0.00 in0.0 mm
04:05 PM 95.5°F35.3°C 64.6°F18.1°C 36% 4.5 mph ESE7.2 kmh ESE 7.4 mph11.9 kmh 29.20 in988.8 mb 0.00 in0.0 mm 0.00 in0.0 mm 0.00 in0.0 mm
04:10 PM 94.7°F34.8°C 63.2°F17.3°C 36% 2.9 mph SW4.7 kmh SW 12.3 mph19.8 kmh 29.20 in988.8 mb 0.00 in0.0 mm 0.00 in0.0 mm 0.00 in0.0 mm
04:15 PM 94.9°F34.9°C 62.6°F17.0°C 35% 4.6 mph S7.4 kmh S 9.8 mph15.8 kmh 29.20 in988.8 mb 0.00 in0.0 mm 0.00 in0.0 mm 0.00 in0.0 mm
04:20 PM 95.2°F35.1°C 61.6°F16.4°C 33% 5.1 mph S8.2 kmh S 12.3 mph19.8 kmh 29.20 in988.8 mb 0.00 in0.0 mm 0.00 in0.0 mm 0.00 in0.0 mm
04:25 PM 95.7°F35.4°C 62.8°F17.1°C 34% 4.9 mph SSE7.9 kmh SSE 12.3 mph19.8 kmh 29.20 in988.8 mb 0.00 in0.0 mm 0.00 in0.0 mm 0.00 in0.0 mm
04:30 PM 96.1°F35.6°C 63.1°F17.3°C 34% 5.5 mph SSE8.9 kmh SSE 9.8 mph15.8 kmh 29.19 in988.5 mb 0.00 in0.0 mm 0.00 in0.0 mm 0.00 in0.0 mm
04:35 PM 96.1°F35.6°C 62.4°F16.9°C 33% 5.1 mph SSE8.2 kmh SSE 12.3 mph19.8 kmh 29.19 in988.5 mb 0.00 in0.0 mm 0.00 in0.0 mm 0.00 in0.0 mm
04:40 PM 96.1°F35.6°C 62.4°F16.9°C 33% 7.0 mph SSE11.3 kmh SSE 12.3 mph19.8 kmh 29.20 in988.8 mb 0.00 in0.0 mm 0.00 in0.0 mm 0.00 in0.0 mm
04:45 PM 95.8°F35.4°C 62.0°F16.7°C 33% 6.7 mph SSE10.8 kmh SSE 9.8 mph15.8 kmh 29.19 in988.5 mb 0.00 in0.0 mm 0.00 in0.0 mm 0.00 in0.0 mm
04:50 PM 95.2°F35.1°C 61.4°F16.3°C 33% 4.9 mph SSW7.9 kmh SSW 12.3 mph19.8 kmh 29.20 in988.8 mb 0.00 in0.0 mm 0.00 in0.0 mm 0.00 in0.0 mm
04:55 PM 95.3°F35.2°C 61.0°F16.1°C 32% 5.3 mph S8.5 kmh S 12.3 mph19.8 kmh 29.20 in988.8 mb 0.00 in0.0 mm 0.00 in0.0 mm 0.00 in0.0 mm
05:00 PM 95.4°F35.2°C 61.7°F16.5°C 33% 6.7 mph SSE10.8 kmh SSE 12.3 mph19.8 kmh 29.19 in988.5 mb 0.00 in0.0 mm 0.00 in0.0 mm 0.00 in0.0 mm
05:05 PM 95.4°F35.2°C 61.5°F16.4°C 33% 6.2 mph SSE10.0 kmh SSE 12.3 mph19.8 kmh 29.19 in988.5 mb 0.00 in0.0 mm 0.00 in0.0 mm 0.00 in0.0 mm
05:10 PM 95.5°F35.3°C 60.9°F16.1°C 32% 4.3 mph SSE6.9 kmh SSE 12.3 mph19.8 kmh 29.19 in988.5 mb 0.00 in0.0 mm 0.00 in0.0 mm 0.00 in0.0 mm
05:15 PM 95.6°F35.3°C 60.7°F15.9°C 32% 5.0 mph S8.0 kmh S 12.3 mph19.8 kmh 29.19 in988.5 mb 0.00 in0.0 mm 0.00 in0.0 mm 0.00 in0.0 mm
05:20 PM 95.7°F35.4°C 60.0°F15.6°C 31% 5.9 mph S9.5 kmh S 12.3 mph19.8 kmh 29.19 in988.5 mb 0.00 in0.0 mm 0.00 in0.0 mm 0.00 in0.0 mm
05:25 PM 95.9°F35.5°C 60.1°F15.6°C 31% 4.2 mph S6.8 kmh S 7.4 mph11.9 kmh 29.19 in988.5 mb 0.00 in0.0 mm 0.00 in0.0 mm 0.00 in0.0 mm
05:30 PM 96.1°F35.6°C 61.4°F16.3°C 32% 6.4 mph SSE10.3 kmh SSE 9.8 mph15.8 kmh 29.19 in988.5 mb 0.00 in0.0 mm 0.00 in0.0 mm 0.00 in0.0 mm
05:35 PM 96.1°F35.6°C 61.4°F16.3°C 32% 3.9 mph S6.3 kmh S 7.4 mph11.9 kmh 29.19 in988.5 mb 0.00 in0.0 mm 0.00 in0.0 mm 0.00 in0.0 mm
05:40 PM 95.9°F35.5°C 62.1°F16.7°C 33% 6.5 mph SE10.5 kmh SE 12.3 mph19.8 kmh 29.18 in988.1 mb 0.00 in0.0 mm 0.00 in0.0 mm 0.00 in0.0 mm
05:45 PM 95.5°F35.3°C 62.6°F17.0°C 34% 5.8 mph S9.3 kmh S 9.8 mph15.8 kmh 29.18 in988.1 mb 0.00 in0.0 mm 0.00 in0.0 mm 0.00 in0.0 mm
05:50 PM 94.8°F34.9°C 61.4°F16.3°C 33% 4.4 mph SSE7.1 kmh SSE 9.8 mph15.8 kmh 29.19 in988.5 mb 0.00 in0.0 mm 0.00 in0.0 mm 0.00 in0.0 mm
05:55 PM 94.8°F34.9°C 61.7°F16.5°C 34% 7.2 mph S11.6 kmh S 9.8 mph15.8 kmh 29.19 in988.5 mb 0.00 in0.0 mm 0.00 in0.0 mm 0.00 in0.0 mm
06:00 PM 94.8°F34.9°C 61.4°F16.3°C 33% 5.2 mph SSE8.4 kmh SSE 12.3 mph19.8 kmh 29.18 in988.1 mb 0.00 in0.0 mm 0.00 in0.0 mm 0.00 in0.0 mm
06:05 PM 94.8°F34.9°C 62.7°F17.1°C 35% 3.8 mph SE6.1 kmh SE 9.8 mph15.8 kmh 29.19 in988.5 mb 0.00 in0.0 mm 0.00 in0.0 mm 0.00 in0.0 mm
06:10 PM 95.0°F35.0°C 63.3°F17.4°C 35% 8.0 mph SSE12.9 kmh SSE 15.0 mph24.1 kmh 29.19 in988.5 mb 0.00 in0.0 mm 0.00 in0.0 mm 0.00 in0.0 mm
06:15 PM 94.9°F34.9°C 63.4°F17.4°C 36% 7.0 mph SSE11.3 kmh SSE 12.3 mph19.8 kmh 29.20 in988.8 mb 0.00 in0.0 mm 0.00 in0.0 mm 0.00 in0.0 mm
06:20 PM 94.7°F34.8°C 63.5°F17.5°C 36% 4.4 mph S7.1 kmh S 12.3 mph19.8 kmh 29.19 in988.5 mb 0.00 in0.0 mm 0.00 in0.0 mm 0.00 in0.0 mm
06:25 PM 94.5°F34.7°C 64.1°F17.8°C 37% 4.4 mph SSE7.1 kmh SSE 9.8 mph15.8 kmh 29.19 in988.5 mb 0.00 in0.0 mm 0.00 in0.0 mm 0.00 in0.0 mm
06:30 PM 93.4°F34.1°C 64.8°F18.2°C 39% 4.8 mph SSE7.7 kmh SSE 7.4 mph11.9 kmh 29.19 in988.5 mb 0.00 in0.0 mm 0.00 in0.0 mm 0.00 in0.0 mm
06:35 PM 93.3°F34.1°C 65.8°F18.8°C 41% 7.0 mph SSE11.3 kmh SSE 12.3 mph19.8 kmh 29.19 in988.5 mb 0.00 in0.0 mm 0.00 in0.0 mm 0.00 in0.0 mm
06:40 PM 93.1°F33.9°C 66.0°F18.9°C 41% 7.4 mph SSE11.9 kmh SSE 15.0 mph24.1 kmh 29.20 in988.8 mb 0.00 in0.0 mm 0.00 in0.0 mm 0.00 in0.0 mm
06:45 PM 92.9°F33.8°C 66.4°F19.1°C 42% 7.2 mph SE11.6 kmh SE 12.3 mph19.8 kmh 29.20 in988.8 mb 0.00 in0.0 mm 0.00 in0.0 mm 0.00 in0.0 mm
06:50 PM 92.1°F33.4°C 65.6°F18.7°C 42% 8.3 mph SSE13.4 kmh SSE 15.0 mph24.1 kmh 29.19 in988.5 mb 0.00 in0.0 mm 0.00 in0.0 mm 0.00 in0.0 mm
06:55 PM 91.9°F33.3°C 65.5°F18.6°C 42% 5.4 mph SSE8.7 kmh SSE 12.3 mph19.8 kmh 29.19 in988.5 mb 0.00 in0.0 mm 0.00 in0.0 mm 0.00 in0.0 mm
07:00 PM 91.9°F33.3°C 65.5°F18.6°C 42% 7.7 mph SSE12.4 kmh SSE 15.0 mph24.1 kmh 29.18 in988.1 mb 0.00 in0.0 mm 0.00 in0.0 mm 0.00 in0.0 mm
07:05 PM 91.9°F33.3°C 65.5°F18.6°C 42% 8.0 mph SSE12.9 kmh SSE 15.0 mph24.1 kmh 29.19 in988.5 mb 0.00 in0.0 mm 0.00 in0.0 mm 0.00 in0.0 mm
07:10 PM 91.4°F33.0°C 65.5°F18.6°C 43% 5.0 mph SSE8.0 kmh SSE 9.8 mph15.8 kmh 29.19 in988.5 mb 0.00 in0.0 mm 0.00 in0.0 mm 0.00 in0.0 mm
07:15 PM 91.4°F33.0°C 65.7°F18.7°C 43% 5.6 mph SE9.0 kmh SE 9.8 mph15.8 kmh 29.19 in988.5 mb 0.00 in0.0 mm 0.00 in0.0 mm 0.00 in0.0 mm
07:20 PM 91.4°F33.0°C 65.7°F18.7°C 43% 6.3 mph SE10.1 kmh SE 15.0 mph24.1 kmh 29.19 in988.5 mb 0.00 in0.0 mm 0.00 in0.0 mm 0.00 in0.0 mm
07:25 PM 91.2°F32.9°C 65.8°F18.8°C 43% 3.5 mph SSE5.6 kmh SSE 7.4 mph11.9 kmh 29.19 in988.5 mb 0.00 in0.0 mm 0.00 in0.0 mm 0.00 in0.0 mm
07:30 PM 90.4°F32.4°C 65.5°F18.6°C 44% 4.1 mph SSE6.6 kmh SSE 7.4 mph11.9 kmh 29.19 in988.5 mb 0.00 in0.0 mm 0.00 in0.0 mm 0.00 in0.0 mm
07:35 PM 90.3°F32.4°C 65.4°F18.6°C 44% 4.4 mph SE7.1 kmh SE 9.8 mph15.8 kmh 29.19 in988.5 mb 0.00 in0.0 mm 0.00 in0.0 mm 0.00 in0.0 mm
07:40 PM 90.3°F32.4°C 65.1°F18.4°C 44% 3.3 mph SE5.3 kmh SE 7.4 mph11.9 kmh 29.19 in988.5 mb 0.00 in0.0 mm 0.00 in0.0 mm 0.00 in0.0 mm
07:45 PM 90.3°F32.4°C 64.6°F18.1°C 43% 5.5 mph SSE8.9 kmh SSE 12.3 mph19.8 kmh 29.20 in988.8 mb 0.00 in0.0 mm 0.00 in0.0 mm 0.00 in0.0 mm
07:50 PM 90.0°F32.2°C 64.5°F18.1°C 43% 2.9 mph SE4.7 kmh SE 4.9 mph7.9 kmh 29.20 in988.8 mb 0.00 in0.0 mm 0.00 in0.0 mm 0.00 in0.0 mm
07:55 PM 90.0°F32.2°C 64.6°F18.1°C 43% 2.7 mph SE4.3 kmh SE 4.9 mph7.9 kmh 29.20 in988.8 mb 0.00 in0.0 mm 0.00 in0.0 mm 0.00 in0.0 mm
08:00 PM 90.0°F32.2°C 64.6°F18.1°C 43% 4.6 mph SE7.4 kmh SE 12.3 mph19.8 kmh 29.20 in988.8 mb 0.00 in0.0 mm 0.00 in0.0 mm 0.00 in0.0 mm
08:05 PM 89.8°F32.1°C 64.7°F18.2°C 44% 3.3 mph SSE5.3 kmh SSE 7.4 mph11.9 kmh 29.20 in988.8 mb 0.00 in0.0 mm 0.00 in0.0 mm 0.00 in0.0 mm
08:10 PM 89.2°F31.8°C 65.0°F18.3°C 45% 2.9 mph SE4.7 kmh SE 7.4 mph11.9 kmh 29.21 in989.2 mb 0.00 in0.0 mm 0.00 in0.0 mm 0.00 in0.0 mm
08:15 PM 89.1°F31.7°C 65.0°F18.3°C 45% 3.2 mph SE5.1 kmh SE 9.8 mph15.8 kmh 29.21 in989.2 mb 0.00 in0.0 mm 0.00 in0.0 mm 0.00 in0.0 mm
08:20 PM 89.1°F31.7°C 65.0°F18.3°C 45% 3.2 mph ESE5.1 kmh ESE 7.4 mph11.9 kmh 29.21 in989.2 mb 0.00 in0.0 mm 0.00 in0.0 mm 0.00 in0.0 mm
08:25 PM 89.1°F31.7°C 65.5°F18.6°C 46% 4.0 mph SE6.4 kmh SE 7.4 mph11.9 kmh 29.21 in989.2 mb 0.00 in0.0 mm 0.00 in0.0 mm 0.00 in0.0 mm
08:30 PM 88.8°F31.6°C 65.4°F18.6°C 46% 4.7 mph SE7.6 kmh SE 7.4 mph11.9 kmh 29.21 in989.2 mb 0.00 in0.0 mm 0.00 in0.0 mm 0.00 in0.0 mm
08:35 PM 88.7°F31.5°C 65.9°F18.8°C 47% 6.2 mph S10.0 kmh S 15.0 mph24.1 kmh 29.21 in989.2 mb 0.00 in0.0 mm 0.00 in0.0 mm 0.00 in0.0 mm
08:40 PM 88.7°F31.5°C 66.7°F19.3°C 48% 4.7 mph SSE7.6 kmh SSE 9.8 mph15.8 kmh 29.22 in989.5 mb 0.00 in0.0 mm 0.00 in0.0 mm 0.00 in0.0 mm
08:45 PM 88.7°F31.5°C 67.1°F19.5°C 49% 5.0 mph SE8.0 kmh SE 7.4 mph11.9 kmh 29.22 in989.5 mb 0.00 in0.0 mm 0.00 in0.0 mm 0.00 in0.0 mm
08:50 PM 88.4°F31.3°C 67.3°F19.6°C 50% 5.9 mph S9.5 kmh S 12.3 mph19.8 kmh 29.23 in989.8 mb 0.00 in0.0 mm 0.00 in0.0 mm 0.00 in0.0 mm
08:55 PM 88.0°F31.1°C 67.6°F19.8°C 51% 5.6 mph SSE9.0 kmh SSE 9.8 mph15.8 kmh 29.23 in989.8 mb 0.00 in0.0 mm 0.00 in0.0 mm 0.00 in0.0 mm
09:00 PM 88.0°F31.1°C 67.7°F19.8°C 51% 6.0 mph S9.7 kmh S 9.8 mph15.8 kmh 29.23 in989.8 mb 0.00 in0.0 mm 0.00 in0.0 mm 0.00 in0.0 mm
09:05 PM 88.0°F31.1°C 68.1°F20.1°C 52% 8.0 mph SE12.9 kmh SE 12.3 mph19.8 kmh 29.23 in989.8 mb 0.00 in0.0 mm 0.00 in0.0 mm 0.00 in0.0 mm
09:10 PM 87.9°F31.1°C 68.2°F20.1°C 52% 8.0 mph SE12.9 kmh SE 15.0 mph24.1 kmh 29.24 in990.2 mb 0.00 in0.0 mm 0.00 in0.0 mm 0.00 in0.0 mm
09:15 PM 87.8°F31.0°C 68.5°F20.3°C 53% 10.0 mph SSE16.1 kmh SSE 19.9 mph32.0 kmh 29.25 in990.5 mb 0.00 in0.0 mm 0.00 in0.0 mm 0.00 in0.0 mm
09:20 PM 87.8°F31.0°C 68.5°F20.3°C 53% 10.1 mph SSE16.3 kmh SSE 17.4 mph28.0 kmh 29.25 in990.5 mb 0.00 in0.0 mm 0.00 in0.0 mm 0.00 in0.0 mm
09:25 PM 87.7°F30.9°C 69.3°F20.7°C 54% 8.8 mph SSE14.2 kmh SSE 15.0 mph24.1 kmh 29.25 in990.5 mb 0.00 in0.0 mm 0.00 in0.0 mm 0.00 in0.0 mm
09:30 PM 87.5°F30.8°C 69.4°F20.8°C 55% 13.0 mph SSE20.9 kmh SSE 24.8 mph39.9 kmh 29.25 in990.5 mb 0.00 in0.0 mm 0.00 in0.0 mm 0.00 in0.0 mm
09:35 PM 87.4°F30.8°C 69.7°F20.9°C 56% 9.3 mph SSE15.0 kmh SSE 19.9 mph32.0 kmh 29.26 in990.9 mb 0.00 in0.0 mm 0.00 in0.0 mm 0.00 in0.0 mm
09:40 PM 87.3°F30.7°C 69.8°F21.0°C 56% 8.7 mph SSE14.0 kmh SSE 15.0 mph24.1 kmh 29.26 in990.9 mb 0.00 in0.0 mm 0.00 in0.0 mm 0.00 in0.0 mm
09:45 PM 87.3°F30.7°C 70.2°F21.2°C 57% 9.8 mph SSE15.8 kmh SSE 17.4 mph28.0 kmh 29.26 in990.9 mb 0.00 in0.0 mm 0.00 in0.0 mm 0.00 in0.0 mm
09:50 PM 87.1°F30.6°C 70.3°F21.3°C 58% 9.7 mph S15.6 kmh S 22.4 mph36.0 kmh 29.26 in990.9 mb 0.00 in0.0 mm 0.00 in0.0 mm 0.00 in0.0 mm
09:55 PM 86.8°F30.4°C 70.2°F21.2°C 58% 9.9 mph SE15.9 kmh SE 17.4 mph28.0 kmh 29.26 in990.9 mb 0.00 in0.0 mm 0.00 in0.0 mm 0.00 in0.0 mm
10:00 PM 86.7°F30.4°C 70.4°F21.3°C 58% 10.8 mph S17.4 kmh S 17.4 mph28.0 kmh 29.26 in990.9 mb 0.00 in0.0 mm 0.00 in0.0 mm 0.00 in0.0 mm
10:05 PM 86.7°F30.4°C 70.6°F21.4°C 59% 7.1 mph SSE11.4 kmh SSE 17.4 mph28.0 kmh 29.26 in990.9 mb 0.00 in0.0 mm 0.00 in0.0 mm 0.00 in0.0 mm
10:10 PM 86.5°F30.3°C 70.9°F21.6°C 60% 8.8 mph SE14.2 kmh SE 12.3 mph19.8 kmh 29.27 in991.2 mb 0.00 in0.0 mm 0.00 in0.0 mm 0.00 in0.0 mm
10:15 PM 86.1°F30.1°C 70.6°F21.4°C 60% 6.2 mph S10.0 kmh S 15.0 mph24.1 kmh 29.27 in991.2 mb 0.00 in0.0 mm 0.00 in0.0 mm 0.00 in0.0 mm
10:20 PM 86.0°F30.0°C 70.8°F21.6°C 61% 8.1 mph S13.0 kmh S 12.3 mph19.8 kmh 29.27 in991.2 mb 0.00 in0.0 mm 0.00 in0.0 mm 0.00 in0.0 mm
10:25 PM 86.0°F30.0°C 71.0°F21.7°C 61% 9.4 mph S15.1 kmh S 15.0 mph24.1 kmh 29.27 in991.2 mb 0.00 in0.0 mm 0.00 in0.0 mm 0.00 in0.0 mm
10:30 PM 86.0°F30.0°C 71.1°F21.7°C 61% 10.8 mph SSE17.4 kmh SSE 19.9 mph32.0 kmh 29.27 in991.2 mb 0.00 in0.0 mm 0.00 in0.0 mm 0.00 in0.0 mm
10:35 PM 85.9°F29.9°C 71.0°F21.7°C 61% 8.7 mph SE14.0 kmh SE 12.3 mph19.8 kmh 29.27 in991.2 mb 0.00 in0.0 mm 0.00 in0.0 mm 0.00 in0.0 mm
10:40 PM 85.8°F29.9°C 71.6°F22.0°C 63% 9.1 mph SSE14.6 kmh SSE 15.0 mph24.1 kmh 29.27 in991.2 mb 0.00 in0.0 mm 0.00 in0.0 mm 0.00 in0.0 mm
10:45 PM 85.8°F29.9°C 71.7°F22.1°C 63% 5.9 mph SSW9.5 kmh SSW 12.3 mph19.8 kmh 29.27 in991.2 mb 0.00 in0.0 mm 0.00 in0.0 mm 0.00 in0.0 mm
10:50 PM 85.7°F29.8°C 71.6°F22.0°C 63% 7.7 mph SSE12.4 kmh SSE 12.3 mph19.8 kmh 29.27 in991.2 mb 0.00 in0.0 mm 0.00 in0.0 mm 0.00 in0.0 mm
10:55 PM 85.2°F29.6°C 71.2°F21.8°C 63% 7.2 mph S11.6 kmh S 12.3 mph19.8 kmh 29.28 in991.5 mb 0.00 in0.0 mm 0.00 in0.0 mm 0.00 in0.0 mm
11:00 PM 85.1°F29.5°C 71.5°F21.9°C 64% 7.7 mph SSE12.4 kmh SSE 15.0 mph24.1 kmh 29.28 in991.5 mb 0.00 in0.0 mm 0.00 in0.0 mm 0.00 in0.0 mm
11:05 PM 85.1°F29.5°C 71.5°F21.9°C 64% 9.0 mph S14.5 kmh S 15.0 mph24.1 kmh 29.28 in991.5 mb 0.00 in0.0 mm 0.00 in0.0 mm 0.00 in0.0 mm
11:10 PM 84.9°F29.4°C 71.4°F21.9°C 64% 8.3 mph SSE13.4 kmh SSE 15.0 mph24.1 kmh 29.28 in991.5 mb 0.00 in0.0 mm 0.00 in0.0 mm 0.00 in0.0 mm
11:15 PM 84.7°F29.3°C 71.1°F21.7°C 64% 7.5 mph S12.1 kmh S 17.4 mph28.0 kmh 29.28 in991.5 mb 0.00 in0.0 mm 0.00 in0.0 mm 0.00 in0.0 mm
11:20 PM 84.6°F29.2°C 71.1°F21.7°C 64% 10.3 mph SSE16.6 kmh SSE 17.4 mph28.0 kmh 29.28 in991.5 mb 0.00 in0.0 mm 0.00 in0.0 mm 0.00 in0.0 mm
11:25 PM 84.6°F29.2°C 71.1°F21.7°C 64% 8.8 mph S14.2 kmh S 15.0 mph24.1 kmh 29.28 in991.5 mb 0.00 in0.0 mm 0.00 in0.0 mm 0.00 in0.0 mm
11:30 PM 84.5°F29.2°C 71.1°F21.7°C 64% 5.4 mph S8.7 kmh S 9.8 mph15.8 kmh 29.28 in991.5 mb 0.00 in0.0 mm 0.00 in0.0 mm 0.00 in0.0 mm
11:35 PM 84.2°F29.0°C 71.1°F21.7°C 65% 7.9 mph SSE12.7 kmh SSE 15.0 mph24.1 kmh 29.28 in991.5 mb 0.00 in0.0 mm 0.00 in0.0 mm 0.00 in0.0 mm
11:40 PM 84.2°F29.0°C 71.1°F21.7°C 65% 7.1 mph SSE11.4 kmh SSE 17.4 mph28.0 kmh 29.29 in991.9 mb 0.00 in0.0 mm 0.00 in0.0 mm 0.00 in0.0 mm
11:45 PM 84.0°F28.9°C 70.9°F21.6°C 65% 6.2 mph SSE10.0 kmh SSE 15.0 mph24.1 kmh 29.28 in991.5 mb 0.00 in0.0 mm 0.00 in0.0 mm 0.00 in0.0 mm
11:50 PM 84.0°F28.9°C 70.9°F21.6°C 65% 9.4 mph SE15.1 kmh SE 15.0 mph24.1 kmh 29.28 in991.5 mb 0.00 in0.0 mm 0.00 in0.0 mm 0.00 in0.0 mm
11:55 PM 83.4°F28.6°C 70.6°F21.4°C 66% 5.9 mph S9.5 kmh S 17.4 mph28.0 kmh 29.28 in991.5 mb 0.00 in0.0 mm 0.00 in0.0 mm 0.00 in0.0 mm